Time;durP1;ratioP1;P1;durP2;ratioP2;P2;SDS_P1;SDS_P2;PMS_P1;PMS_P2;Temp;Humidity;BMP_temperature;BMP_pressure;BME280_temperature;BME280_humidity;BME280_pressure;Samples;Min_cycle;Max_cycle;Signal;HPM_P1;HPM_P2
2023/10/19 00:00:56;;;;;;;4.85;1.70;;;18.50;67.40;;;;;;5112494;28;20316;-55
2023/10/19 00:03:25;;;;;;;5.90;1.50;;;18.50;67.40;;;;;;5112767;28;20221;-57
2023/10/19 00:05:52;;;;;;;5.30;1.83;;;18.50;67.40;;;;;;5112337;28;20195;-58
2023/10/19 00:08:20;;;;;;;9.65;2.30;;;18.50;67.40;;;;;;5112623;28;20189;-57
2023/10/19 00:11:01;;;;;;;7.40;1.58;;;18.50;67.40;;;;;;5112651;28;20199;-58
2023/10/19 00:13:28;;;;;;;5.75;1.73;;;18.50;67.40;;;;;;5112241;28;20213;-57
2023/10/19 00:15:57;;;;;;;3.50;1.60;;;18.50;67.40;;;;;;5112804;28;20185;-59
2023/10/19 00:18:25;;;;;;;4.32;1.52;;;18.50;67.40;;;;;;5112395;28;20217;-56
2023/10/19 00:20:54;;;;;;;4.50;1.42;;;18.50;67.40;;;;;;5112237;28;20189;-56
2023/10/19 00:23:28;;;;;;;5.25;1.48;;;18.50;67.50;;;;;;5112639;28;20193;-55
2023/10/19 00:28:39;;;;;;;5.68;1.60;;;18.50;67.50;;;;;;5077579;28;20232;-58
2023/10/19 00:31:08;;;;;;;5.50;1.75;;;18.50;67.50;;;;;;5112394;28;20564;-56
2023/10/19 00:33:38;;;;;;;3.60;1.40;;;18.50;68.30;;;;;;5112375;28;20313;-57
2023/10/19 00:36:07;;;;;;;7.03;1.52;;;18.50;67.50;;;;;;5112108;28;20189;-58
2023/10/19 00:38:41;;;;;;;7.90;1.70;;;18.50;67.50;;;;;;5111995;28;20233;-56
2023/10/19 00:41:13;;;;;;;4.63;1.75;;;18.50;67.50;;;;;;5112046;28;20688;-58
2023/10/19 00:43:44;;;;;;;7.88;1.90;;;18.50;67.50;;;;;;5112027;28;20217;-56
2023/10/19 00:46:15;;;;;;;6.22;1.67;;;18.50;67.50;;;;;;5112267;28;20232;-58
2023/10/19 00:48:49;;;;;;;5.30;1.73;;;18.50;67.60;;;;;;5112327;28;20262;-58
2023/10/19 00:51:28;;;;;;;8.95;2.13;;;18.50;68.40;;;;;;5112210;28;20192;-57
2023/10/19 00:53:56;;;;;;;4.93;1.67;;;18.50;67.60;;;;;;5112339;28;20209;-56
2023/10/19 00:56:26;;;;;;;6.45;1.80;;;18.50;67.60;;;;;;5111917;28;20181;-59
2023/10/19 00:58:59;;;;;;;3.90;1.60;;;18.50;67.60;;;;;;5111609;28;20690;-60
2023/10/19 01:01:30;;;;;;;7.60;1.80;;;18.50;67.60;;;;;;5113023;28;20185;-58
2023/10/19 01:03:58;;;;;;;7.03;1.65;;;18.50;67.60;;;;;;5115208;28;20779;-56
2023/10/19 01:06:31;;;;;;;4.20;1.67;;;18.50;67.60;;;;;;5116157;28;20646;-56
2023/10/19 01:08:58;;;;;;;5.78;1.80;;;18.50;67.60;;;;;;5115868;28;20249;-56
2023/10/19 01:11:28;;;;;;;5.82;1.80;;;18.50;67.60;;;;;;5115125;28;20196;-59
2023/10/19 01:13:55;;;;;;;8.10;1.80;;;18.50;67.60;;;;;;5115640;28;20212;-58
2023/10/19 01:16:23;;;;;;;8.55;1.80;;;18.50;67.60;;;;;;5115610;28;20258;-56
2023/10/19 01:18:53;;;;;;;4.97;1.80;;;18.50;67.60;;;;;;5115157;28;20251;-54
2023/10/19 01:21:25;;;;;;;9.02;2.13;;;18.50;67.70;;;;;;5115781;28;20189;-59
2023/10/19 01:23:54;;;;;;;8.38;1.60;;;18.50;67.70;;;;;;5115454;28;20209;-58
2023/10/19 01:26:25;;;;;;;7.53;1.70;;;18.50;67.70;;;;;;5115096;28;20192;-55
2023/10/19 01:28:58;;;;;;;7.55;2.13;;;18.50;67.70;;;;;;5115091;28;20213;-57
2023/10/19 01:31:30;;;;;;;6.47;2.10;;;18.50;67.70;;;;;;5115364;28;20272;-58
2023/10/19 01:33:59;;;;;;;9.27;1.80;;;18.50;67.70;;;;;;5114836;28;20611;-58
2023/10/19 01:36:26;;;;;;;5.38;1.83;;;18.50;67.80;;;;;;5115297;28;20185;-56
2023/10/19 01:38:55;;;;;;;7.72;1.98;;;18.50;67.70;;;;;;5114746;28;20228;-55
2023/10/19 01:41:23;;;;;;;7.15;2.05;;;18.50;67.70;;;;;;5114805;28;20242;-58
2023/10/19 01:43:53;;;;;;;6.45;1.73;;;18.50;67.80;;;;;;5114800;28;20221;-58
2023/10/19 01:46:24;;;;;;;10.32;2.42;;;18.50;68.60;;;;;;5115049;28;20213;-57
2023/10/19 01:48:55;;;;;;;7.18;1.75;;;18.50;67.80;;;;;;5114415;28;20293;-58
2023/10/19 01:51:23;;;;;;;6.25;2.13;;;18.40;67.80;;;;;;5114925;28;20192;-58
2023/10/19 01:53:51;;;;;;;11.10;2.30;;;18.50;67.90;;;;;;5114633;28;20217;-56
2023/10/19 01:56:19;;;;;;;7.88;1.77;;;18.50;67.80;;;;;;5114183;28;20549;-57
2023/10/19 01:58:47;;;;;;;10.18;2.00;;;18.50;67.90;;;;;;5114394;28;20233;-58
2023/10/19 02:01:20;;;;;;;8.07;2.35;;;18.50;67.90;;;;;;5114338;28;20694;-59
2023/10/19 02:03:53;;;;;;;6.75;1.92;;;18.50;68.00;;;;;;5114375;28;20586;-56
2023/10/19 02:06:19;;;;;;;9.32;2.13;;;18.50;68.00;;;;;;5114289;28;20189;-57
2023/10/19 02:08:50;;;;;;;10.15;2.13;;;18.40;67.90;;;;;;5114494;28;20213;-59
2023/10/19 02:11:21;;;;;;;8.95;2.03;;;18.50;68.00;;;;;;5113884;28;20185;-54
2023/10/19 02:13:49;;;;;;;11.73;2.78;;;18.50;68.00;;;;;;5113091;28;20630;-57
2023/10/19 02:16:19;;;;;;;8.27;1.95;;;18.50;68.10;;;;;;5114159;28;20635;-56
2023/10/19 02:18:47;;;;;;;7.07;1.80;;;18.50;68.10;;;;;;5113596;28;20774;-56
2023/10/19 02:21:13;;;;;;;7.38;2.08;;;18.50;68.10;;;;;;5114276;28;20185;-54
2023/10/19 02:23:41;;;;;;;9.20;2.08;;;18.50;68.10;;;;;;5114272;28;20225;-58
2023/10/19 02:26:08;;;;;;;9.07;2.28;;;18.50;68.10;;;;;;5113718;28;20189;-56
2023/10/19 02:28:38;;;;;;;5.10;1.58;;;18.50;68.10;;;;;;5114133;28;20192;-56
2023/10/19 02:31:14;;;;;;;7.30;1.83;;;18.50;68.10;;;;;;5113818;28;20639;-53
2023/10/19 02:33:42;;;;;;;6.70;2.03;;;18.50;68.10;;;;;;5113442;28;20227;-53
2023/10/19 02:36:12;;;;;;;6.32;1.98;;;18.50;68.10;;;;;;5114011;28;20234;-58
2023/10/19 02:38:44;;;;;;;5.00;1.92;;;18.40;68.10;;;;;;5113525;28;20209;-57
2023/10/19 02:41:10;;;;;;;5.25;1.83;;;18.40;68.10;;;;;;5113522;28;20190;-56
2023/10/19 02:43:40;;;;;;;7.72;2.13;;;18.40;68.00;;;;;;5113580;28;20558;-55
2023/10/19 02:46:07;;;;;;;6.25;1.98;;;18.50;68.10;;;;;;5113817;28;20182;-56
2023/10/19 02:48:35;;;;;;;5.68;1.90;;;18.50;68.10;;;;;;5113322;28;20273;-58
2023/10/19 02:51:10;;;;;;;6.22;1.90;;;18.50;68.20;;;;;;5113792;28;20192;-56
2023/10/19 02:53:39;;;;;;;7.13;1.92;;;18.40;68.10;;;;;;5113369;28;20196;-58
2023/10/19 02:56:14;;;;;;;5.80;2.03;;;18.50;68.20;;;;;;5113362;28;20284;-58
2023/10/19 02:58:48;;;;;;;5.88;1.77;;;18.50;68.20;;;;;;5113538;28;20216;-56
2023/10/19 03:01:21;;;;;;;10.32;2.10;;;18.50;68.10;;;;;;5113226;28;20271;-54
2023/10/19 03:03:50;;;;;;;5.82;1.80;;;18.40;68.10;;;;;;5112854;28;20593;-59
2023/10/19 03:06:21;;;;;;;6.32;1.50;;;18.50;68.20;;;;;;5113567;28;20185;-56
2023/10/19 03:08:55;;;;;;;7.20;1.77;;;18.40;68.10;;;;;;5111521;28;20228;-55
2023/10/19 03:11:21;;;;;;;4.10;1.58;;;18.50;68.20;;;;;;5112790;28;20193;-56
2023/10/19 03:13:50;;;;;;;5.68;2.00;;;18.40;68.10;;;;;;5113333;28;20217;-59
2023/10/19 03:16:19;;;;;;;7.10;1.77;;;18.40;68.10;;;;;;5113307;28;20216;-58
2023/10/19 03:18:46;;;;;;;6.53;1.70;;;18.50;68.20;;;;;;5112740;28;20229;-57
2023/10/19 03:21:12;;;;;;;5.43;1.70;;;18.40;68.10;;;;;;5113179;28;20185;-53
2023/10/19 03:23:40;;;;;;;6.20;1.52;;;18.40;68.10;;;;;;5112979;28;20192;-57
2023/10/19 03:26:27;;;;;;;8.40;1.90;;;18.40;68.90;;;;;;5112614;28;20570;-57
2023/10/19 03:28:56;;;;;;;4.88;1.70;;;18.40;68.10;;;;;;5112737;28;20236;-57
2023/10/19 03:31:25;;;;;;;5.93;1.88;;;18.40;68.10;;;;;;5113036;28;20242;-56
2023/10/19 03:33:55;;;;;;;6.63;1.83;;;18.40;68.10;;;;;;5112610;28;20213;-58
2023/10/19 03:36:24;;;;;;;5.22;1.70;;;18.40;68.10;;;;;;5112958;28;20189;-57
2023/10/19 03:38:53;;;;;;;6.88;1.60;;;18.40;68.10;;;;;;5112822;28;20228;-58
2023/10/19 03:41:23;;;;;;;4.70;1.80;;;18.40;68.20;;;;;;5112633;28;20189;-58
2023/10/19 03:43:51;;;;;;;7.97;1.90;;;18.40;68.20;;;;;;5112890;28;20252;-58
2023/10/19 03:46:28;;;;;;;9.68;2.00;;;18.40;68.20;;;;;;5112479;28;20235;-59
2023/10/19 03:48:58;;;;;;;5.45;1.42;;;18.50;68.30;;;;;;5112752;28;20212;-57
2023/10/19 03:51:39;;;;;;;6.55;1.77;;;18.50;68.30;;;;;;5112806;28;20185;-56
2023/10/19 03:54:22;;;;;;;4.53;1.58;;;18.40;68.20;;;;;;5112452;28;20217;-56
2023/10/19 03:56:53;;;;;;;5.95;1.88;;;18.40;68.20;;;;;;5112884;28;20280;-58
2023/10/19 03:59:21;;;;;;;6.43;1.52;;;18.40;68.30;;;;;;5112279;28;20231;-57
2023/10/19 04:01:49;;;;;;;6.63;1.80;;;18.40;68.30;;;;;;5112305;28;20190;-57
2023/10/19 04:04:16;;;;;;;6.90;1.65;;;18.40;68.30;;;;;;5112612;28;20240;-54
2023/10/19 04:06:47;;;;;;;7.50;1.70;;;18.40;68.30;;;;;;5112639;28;20181;-56
2023/10/19 04:09:17;;;;;;;7.80;1.90;;;18.40;68.30;;;;;;5112260;28;20239;-57
2023/10/19 04:11:49;;;;;;;8.23;2.13;;;18.40;68.30;;;;;;5112829;28;20691;-56
2023/10/19 04:14:17;;;;;;;4.45;1.58;;;18.40;68.40;;;;;;5112644;28;20213;-57
2023/10/19 04:16:45;;;;;;;6.63;1.75;;;18.40;68.40;;;;;;5112261;28;20185;-58
2023/10/19 04:19:15;;;;;;;6.45;2.22;;;18.40;68.40;;;;;;5112408;28;20281;-58
2023/10/19 04:21:43;;;;;;;4.80;1.65;;;18.40;68.40;;;;;;5112603;28;20217;-57
2023/10/19 04:24:12;;;;;;;3.85;1.55;;;18.40;68.40;;;;;;5112172;28;20345;-55
2023/10/19 04:26:39;;;;;;;4.65;1.70;;;18.40;68.50;;;;;;5112665;28;20185;-57
2023/10/19 04:29:11;;;;;;;8.27;1.85;;;18.40;68.40;;;;;;5112483;28;20659;-54
2023/10/19 04:31:49;;;;;;;4.57;1.77;;;18.40;68.40;;;;;;5111745;28;20659;-56
2023/10/19 04:34:21;;;;;;;5.65;2.08;;;18.40;68.40;;;;;;5112493;28;20220;-58
2023/10/19 04:36:48;;;;;;;9.50;2.17;;;18.40;68.50;;;;;;5114074;28;20193;-56
2023/10/19 04:39:19;;;;;;;5.90;2.05;;;18.40;68.50;;;;;;5115726;28;20316;-56
2023/10/19 04:41:49;;;;;;;6.55;1.83;;;18.40;68.50;;;;;;5116035;28;20639;-58
2023/10/19 04:44:16;;;;;;;8.63;2.20;;;18.40;68.50;;;;;;5116002;28;20235;-56
2023/10/19 04:46:45;;;;;;;6.90;1.80;;;18.40;68.50;;;;;;5115859;28;20598;-57
2023/10/19 04:49:12;;;;;;;8.23;1.95;;;18.40;68.50;;;;;;5116167;28;20225;-58
2023/10/19 04:51:43;;;;;;;7.18;1.88;;;18.40;68.50;;;;;;5116146;28;20196;-55
2023/10/19 04:54:10;;;;;;;7.55;1.90;;;18.40;68.60;;;;;;5115376;28;20271;-56
2023/10/19 04:56:37;;;;;;;3.97;1.52;;;18.40;68.50;;;;;;5116086;28;20185;-58
2023/10/19 04:59:06;;;;;;;7.07;2.33;;;18.40;68.60;;;;;;5115746;28;20213;-58
2023/10/19 05:01:33;;;;;;;4.68;1.40;;;18.40;68.60;;;;;;5115585;28;20194;-56
2023/10/19 05:04:01;;;;;;;5.90;1.92;;;18.40;68.50;;;;;;5116111;28;20224;-56
2023/10/19 05:06:28;;;;;;;5.22;1.40;;;18.40;68.50;;;;;;5115503;28;20200;-58
2023/10/19 05:08:57;;;;;;;4.40;1.70;;;18.40;68.50;;;;;;5114947;28;20637;-59
2023/10/19 05:11:24;;;;;;;5.72;1.48;;;18.40;68.60;;;;;;5115568;28;20665;-61
2023/10/19 05:13:51;;;;;;;5.18;1.58;;;18.40;68.60;;;;;;5115598;28;20196;-60
2023/10/19 05:16:17;;;;;;;6.90;2.00;;;18.40;68.60;;;;;;5115363;28;20274;-60
2023/10/19 05:18:44;;;;;;;5.50;1.73;;;18.40;68.60;;;;;;5115131;28;20650;-61
2023/10/19 05:21:12;;;;;;;8.52;2.22;;;18.40;68.60;;;;;;5115533;28;20213;-59
2023/10/19 05:23:39;;;;;;;5.78;1.75;;;18.40;68.60;;;;;;5115098;28;20659;-60
2023/10/19 05:26:07;;;;;;;3.72;1.65;;;18.40;68.60;;;;;;5115232;28;20196;-59
2023/10/19 05:28:34;;;;;;;5.72;1.48;;;18.40;68.60;;;;;;5115074;28;20242;-61
2023/10/19 05:31:01;;;;;;;6.95;1.98;;;18.40;68.60;;;;;;5115041;28;20297;-61
2023/10/19 05:33:29;;;;;;;7.13;2.20;;;18.40;69.40;;;;;;5115218;28;20181;-61
2023/10/19 05:35:56;;;;;;;6.07;1.52;;;18.40;69.40;;;;;;5115521;28;20217;-60
2023/10/19 05:38:23;;;;;;;6.80;1.83;;;18.40;68.60;;;;;;5114808;28;20189;-60
2023/10/19 05:40:52;;;;;;;6.82;1.70;;;18.40;68.60;;;;;;5115052;28;20268;-60
2023/10/19 05:43:20;;;;;;;4.63;1.70;;;18.40;68.70;;;;;;5115332;28;20185;-61
2023/10/19 05:45:49;;;;;;;4.40;1.40;;;18.40;68.60;;;;;;5114746;28;20224;-60
2023/10/19 05:48:16;;;;;;;3.90;1.20;;;18.40;69.40;;;;;;5114737;28;20189;-60
2023/10/19 05:50:43;;;;;;;6.15;1.83;;;18.40;68.70;;;;;;5115248;28;20305;-61
2023/10/19 05:53:10;;;;;;;7.32;2.30;;;18.40;68.70;;;;;;5114242;28;20193;-58
2023/10/19 05:55:39;;;;;;;7.32;1.60;;;18.40;68.60;;;;;;5114920;28;20578;-60
2023/10/19 05:58:06;;;;;;;7.03;1.65;;;18.40;68.70;;;;;;5114485;28;20667;-58
2023/10/19 06:00:34;;;;;;;5.30;1.73;;;18.40;68.70;;;;;;5114042;28;20706;-60
2023/10/19 06:03:02;;;;;;;7.22;1.55;;;18.40;68.70;;;;;;5114341;28;20193;-60
2023/10/19 06:05:30;;;;;;;3.15;1.40;;;18.40;68.70;;;;;;5114959;28;20702;-61
2023/10/19 06:07:59;;;;;;;4.78;1.88;;;18.40;68.70;;;;;;5114247;28;20246;-61
2023/10/19 06:10:28;;;;;;;3.92;1.60;;;18.40;68.70;;;;;;5114738;28;20212;-60
2023/10/19 06:12:55;;;;;;;4.70;1.63;;;18.40;68.70;;;;;;5114547;28;20277;-60
2023/10/19 06:15:23;;;;;;;5.10;1.42;;;18.40;68.70;;;;;;5113879;28;20211;-61
2023/10/19 06:17:52;;;;;;;3.33;1.58;;;18.40;68.70;;;;;;5114377;28;20223;-61
2023/10/19 06:20:24;;;;;;;2.20;1.20;;;18.40;68.70;;;;;;5114533;28;20228;-60
2023/10/19 06:22:52;;;;;;;2.70;1.40;;;18.40;68.70;;;;;;5113763;28;20189;-60
2023/10/19 06:25:20;;;;;;;4.05;1.35;;;18.40;68.70;;;;;;5114168;28;20582;-60
2023/10/19 06:27:47;;;;;;;4.45;1.77;;;18.40;68.70;;;;;;5114180;28;20250;-61
2023/10/19 06:30:18;;;;;;;5.53;1.30;;;18.40;68.70;;;;;;5113988;28;20223;-60
2023/10/19 06:32:50;;;;;;;6.10;1.42;;;18.40;68.70;;;;;;5114201;28;20185;-60
2023/10/19 06:35:18;;;;;;;5.60;1.60;;;18.40;68.70;;;;;;5114129;28;20213;-60
2023/10/19 06:37:46;;;;;;;4.22;1.52;;;18.40;68.70;;;;;;5113830;28;20268;-60
2023/10/19 06:40:14;;;;;;;2.80;1.30;;;18.40;68.70;;;;;;5100413;28;20224;-59
2023/10/19 06:42:42;;;;;;;5.13;1.38;;;18.40;68.80;;;;;;5103140;28;20674;-60
2023/10/19 06:45:13;;;;;;;6.20;1.48;;;18.40;68.80;;;;;;5107230;28;20886;-61
2023/10/19 06:47:42;;;;;;;5.30;1.45;;;18.40;68.80;;;;;;5096071;28;20201;-58
2023/10/19 06:50:11;;;;;;;4.68;1.55;;;18.40;68.80;;;;;;5089880;28;20264;-60
2023/10/19 06:52:40;;;;;;;5.13;1.83;;;18.40;68.80;;;;;;5088868;28;20583;-61
2023/10/19 06:55:13;;;;;;;5.15;1.40;;;18.50;68.90;;;;;;5100648;28;20225;-61
2023/10/19 06:57:43;;;;;;;3.75;1.50;;;18.50;69.20;;;;;;5100670;28;20198;-58
2023/10/19 07:00:14;;;;;;;5.90;1.58;;;18.60;69.20;;;;;;5092682;28;20814;-61
2023/10/19 07:02:42;;;;;;;6.47;1.75;;;18.70;69.40;;;;;;5101326;28;20284;-59
2023/10/19 07:05:11;;;;;;;5.32;1.48;;;18.70;69.10;;;;;;5099799;28;20239;-57
2023/10/19 07:07:41;;;;;;;4.47;1.90;;;18.80;69.20;;;;;;5098911;28;20262;-60
2023/10/19 07:10:11;;;;;;;7.18;1.40;;;18.90;69.20;;;;;;5094835;28;20605;-60
2023/10/19 07:12:39;;;;;;;5.32;2.30;;;19.00;69.00;;;;;;5102210;28;20205;-57
2023/10/19 07:15:08;;;;;;;6.07;2.22;;;19.10;69.00;;;;;;5087669;28;20222;-59
2023/10/19 07:17:37;;;;;;;6.63;1.83;;;19.10;68.80;;;;;;5096568;28;20205;-57
2023/10/19 07:20:06;;;;;;;4.40;1.95;;;19.20;68.90;;;;;;5086686;28;20224;-59
2023/10/19 07:22:33;;;;;;;5.95;1.50;;;19.30;69.00;;;;;;5090972;28;20904;-60
2023/10/19 07:25:05;;;;;;;7.32;1.80;;;19.30;68.90;;;;;;5094360;28;20228;-59
2023/10/19 07:27:33;;;;;;;8.00;1.85;;;19.40;68.60;;;;;;5097968;28;20210;-60
2023/10/19 07:30:01;;;;;;;4.78;1.73;;;19.50;68.60;;;;;;5086859;28;20230;-60
2023/10/19 07:32:29;;;;;;;6.18;1.65;;;19.50;68.80;;;;;;5093696;28;20210;-62
2023/10/19 07:34:59;;;;;;;8.75;2.22;;;19.50;68.80;;;;;;5085352;28;20268;-60
2023/10/19 07:37:27;;;;;;;5.82;1.55;;;19.60;69.00;;;;;;5089244;28;20733;-59
2023/10/19 07:39:57;;;;;;;9.27;2.20;;;19.70;69.00;;;;;;5101268;28;20225;-58
2023/10/19 07:42:25;;;;;;;6.93;2.17;;;19.70;68.60;;;;;;5091662;28;20197;-59
2023/10/19 07:44:53;;;;;;;9.60;1.92;;;19.80;68.60;;;;;;5085512;28;20288;-60
2023/10/19 07:47:23;;;;;;;10.00;2.10;;;19.80;68.60;;;;;;5093699;28;20194;-62
2023/10/19 07:49:52;;;;;;;7.53;2.22;;;19.90;69.00;;;;;;5091060;28;20194;-62
2023/10/19 07:52:19;;;;;;;6.32;2.65;;;20.00;68.90;;;;;;5086341;28;20841;-58
2023/10/19 07:54:53;;;;;;;10.70;2.25;;;20.10;69.00;;;;;;5091917;28;21196;-55
2023/10/19 07:57:20;;;;;;;12.43;2.25;;;20.20;68.80;;;;;;5101611;28;20305;-57
2023/10/19 07:59:48;;;;;;;14.02;1.90;;;20.20;68.40;;;;;;5090767;28;20771;-56
2023/10/19 08:02:16;;;;;;;7.75;2.33;;;20.30;68.40;;;;;;5086603;28;20208;-57
2023/10/19 08:04:43;;;;;;;9.10;2.25;;;20.30;68.30;;;;;;5097721;28;20197;-55
2023/10/19 08:07:10;;;;;;;17.05;1.98;;;20.20;68.20;;;;;;5099190;28;20759;-58
2023/10/19 08:09:38;;;;;;;10.73;1.63;;;20.20;68.30;;;;;;5099004;28;20193;-59
2023/10/19 08:12:13;;;;;;;8.65;2.10;;;20.20;68.70;;;;;;5096753;28;20303;-57
2023/10/19 08:14:40;;;;;;;9.80;2.20;;;20.20;68.50;;;;;;5087172;28;20323;-63
2023/10/19 08:17:09;;;;;;;9.70;2.25;;;20.20;68.50;;;;;;5091633;28;20229;-65
2023/10/19 08:19:36;;;;;;;6.72;1.88;;;20.20;68.50;;;;;;5098021;28;20189;-61
2023/10/19 08:22:04;;;;;;;13.68;2.33;;;20.20;68.50;;;;;;5097015;28;20229;-66
2023/10/19 08:24:34;;;;;;;9.18;1.88;;;20.20;68.50;;;;;;5093481;28;20190;-61
2023/10/19 08:27:02;;;;;;;5.97;1.88;;;20.20;68.50;;;;;;5094777;28;20301;-60
2023/10/19 08:29:30;;;;;;;7.95;1.70;;;20.20;68.40;;;;;;5087337;28;20194;-59
2023/10/19 08:31:57;;;;;;;12.90;2.13;;;20.30;68.40;;;;;;5099940;28;20304;-53
2023/10/19 08:34:25;;;;;;;6.60;1.60;;;20.30;68.20;;;;;;5095239;28;20208;-57
2023/10/19 08:36:53;;;;;;;7.75;1.90;;;20.40;68.20;;;;;;5093426;28;20225;-60
2023/10/19 08:39:36;;;;;;;8.43;2.10;;;20.50;68.10;;;;;;5098052;28;20904;-56
2023/10/19 08:42:04;;;;;;;4.65;1.77;;;20.50;68.40;;;;;;5017278;28;20233;-54
2023/10/19 08:44:31;;;;;;;10.68;2.85;;;20.60;68.40;;;;;;5092914;28;20821;-53
2023/10/19 08:47:08;;;;;;;11.65;2.00;;;20.60;68.20;;;;;;5089036;28;20253;-58
2023/10/19 08:49:37;;;;;;;14.65;2.20;;;20.70;68.20;;;;;;5052646;28;20287;-58
2023/10/19 08:52:06;;;;;;;7.97;2.00;;;20.80;68.40;;;;;;5088501;28;20239;-57
2023/10/19 08:54:33;;;;;;;6.07;2.00;;;20.80;68.20;;;;;;5092017;28;20285;-63
2023/10/19 08:57:01;;;;;;;10.07;2.60;;;20.80;68.20;;;;;;5097340;27;20232;-60
2023/10/19 08:59:28;;;;;;;10.73;1.92;;;20.90;68.10;;;;;;5099977;28;20225;-62
2023/10/19 09:02:01;;;;;;;9.75;2.08;;;20.90;68.20;;;;;;5100890;28;20228;-57
2023/10/19 09:04:28;;;;;;;6.97;2.17;;;20.90;68.50;;;;;;5095207;28;20189;-58
2023/10/19 09:06:57;;;;;;;9.27;1.80;;;20.90;68.40;;;;;;5100099;28;20266;-59
2023/10/19 09:09:25;;;;;;;6.80;1.90;;;20.90;68.60;;;;;;5089557;28;20699;-58
2023/10/19 09:11:54;;;;;;;14.32;1.73;;;20.90;68.70;;;;;;5087601;28;20295;-57
2023/10/19 09:14:33;;;;;;;10.88;1.90;;;20.90;68.70;;;;;;5093990;28;20209;-60
2023/10/19 09:17:03;;;;;;;10.23;2.05;;;20.90;68.80;;;;;;5104569;28;20967;-60
2023/10/19 09:19:38;;;;;;;9.20;2.13;;;21.00;68.80;;;;;;5087693;28;20258;-62
2023/10/19 09:22:16;;;;;;;9.48;1.88;;;21.00;68.60;;;;;;5089429;28;20471;-61
2023/10/19 09:24:47;;;;;;;11.82;1.77;;;21.00;68.60;;;;;;5096632;28;20204;-61
2023/10/19 09:27:17;;;;;;;7.50;2.33;;;21.00;68.70;;;;;;5095668;28;20794;-61
2023/10/19 09:29:48;;;;;;;9.27;1.85;;;21.00;68.70;;;;;;5097380;28;20194;-57
2023/10/19 09:32:19;;;;;;;6.38;1.80;;;21.00;68.50;;;;;;5103115;28;20229;-55
2023/10/19 09:34:47;;;;;;;8.05;1.90;;;20.90;68.20;;;;;;5093929;28;20614;-60
2023/10/19 09:37:18;;;;;;;10.95;2.53;;;20.90;68.00;;;;;;5087722;28;20596;-59
2023/10/19 09:39:45;;;;;;;14.15;3.63;;;20.80;67.80;;;;;;5084831;28;20658;-60
2023/10/19 09:42:16;;;;;;;15.02;3.95;;;20.80;67.90;;;;;;5097771;28;20228;-58
2023/10/19 09:44:45;;;;;;;14.73;6.28;;;20.70;68.00;;;;;;5086001;28;20244;-59
2023/10/19 09:47:14;;;;;;;22.17;6.32;;;20.70;68.10;;;;;;5094635;28;20320;-59
2023/10/19 09:49:42;;;;;;;13.95;5.32;;;20.70;68.20;;;;;;5101171;28;20261;-56
2023/10/19 09:52:13;;;;;;;43.88;6.35;;;20.70;68.10;;;;;;5100719;28;20270;-59
2023/10/19 09:54:53;;;;;;;14.18;6.35;;;20.70;68.10;;;;;;5095116;28;20200;-62
2023/10/19 09:57:27;;;;;;;16.13;6.38;;;20.70;68.10;;;;;;5096550;28;20228;-59
2023/10/19 10:00:07;;;;;;;12.40;5.82;;;20.70;68.10;;;;;;5092770;28;21449;-61
2023/10/19 10:02:34;;;;;;;13.50;5.25;;;20.70;68.00;;;;;;5096768;28;20229;-61
2023/10/19 10:05:04;;;;;;;17.38;4.85;;;20.70;67.90;;;;;;5097264;28;20276;-61
2023/10/19 10:07:31;;;;;;;15.82;6.50;;;20.70;67.90;;;;;;5091419;28;20228;-60
2023/10/19 10:10:00;;;;;;;44.45;39.80;;;20.70;67.80;;;;;;5096821;28;20200;-59
2023/10/19 10:12:28;;;;;;;67.30;59.95;;;20.70;67.70;;;;;;5087887;28;20260;-61
2023/10/19 10:15:01;;;;;;;66.78;59.72;;;20.80;67.70;;;;;;5095308;28;20200;-62
2023/10/19 10:17:29;;;;;;;177.85;121.75;;;20.80;67.60;;;;;;5091177;28;20249;-62
2023/10/19 10:19:59;;;;;;;198.40;128.95;;;20.80;67.50;;;;;;5088469;28;20316;-61
2023/10/19 10:22:27;;;;;;;171.48;113.45;;;20.80;67.60;;;;;;5098074;28;20315;-63
2023/10/19 10:24:58;;;;;;;142.23;93.75;;;20.80;67.70;;;;;;5098604;28;20255;-64
2023/10/19 10:27:25;;;;;;;123.10;85.45;;;20.80;67.60;;;;;;5085545;28;20246;-65
2023/10/19 10:29:56;;;;;;;119.18;81.32;;;20.90;67.30;;;;;;5085570;28;20283;-64
2023/10/19 10:32:45;;;;;;;102.95;68.30;;;20.80;66.80;;;;;;5101763;28;20631;-64
2023/10/19 10:35:48;;;;;;;79.35;55.47;;;20.80;66.90;;;;;;5079663;28;20194;-64
2023/10/19 10:38:15;;;;;;;63.72;44.80;;;20.70;66.90;;;;;;5082136;28;20311;-64
2023/10/19 10:40:49;;;;;;;54.63;37.97;;;20.70;67.10;;;;;;5088858;28;20193;-59
2023/10/19 10:43:17;;;;;;;44.08;31.65;;;20.60;67.10;;;;;;5104149;28;20225;-61
2023/10/19 10:45:45;;;;;;;39.72;27.88;;;20.60;67.20;;;;;;5093782;28;20856;-58
2023/10/19 10:48:13;;;;;;;38.17;25.92;;;20.50;67.10;;;;;;5086173;28;20221;-59
2023/10/19 10:50:41;;;;;;;40.80;25.25;;;20.50;67.20;;;;;;5091704;28;20201;-59
2023/10/19 10:53:11;;;;;;;31.20;22.20;;;20.50;67.20;;;;;;5086432;28;20308;-60
2023/10/19 10:55:39;;;;;;;35.47;21.00;;;20.50;67.20;;;;;;5088060;28;20198;-61
2023/10/19 10:58:10;;;;;;;32.30;20.55;;;20.50;67.30;;;;;;5084709;28;20351;-59
2023/10/19 11:00:45;;;;;;;31.80;18.52;;;20.50;67.20;;;;;;5092623;28;20301;-60
2023/10/19 11:03:13;;;;;;;28.48;17.27;;;20.50;67.20;;;;;;5091005;28;20256;-60
2023/10/19 11:05:41;;;;;;;25.23;16.90;;;20.40;67.90;;;;;;5093047;28;20189;-62
2023/10/19 11:08:13;;;;;;;25.85;16.38;;;20.40;67.10;;;;;;5090610;28;20225;-61
2023/10/19 11:10:42;;;;;;;24.00;15.38;;;20.40;67.10;;;;;;5091822;28;20560;-60
2023/10/19 11:13:13;;;;;;;21.70;14.82;;;20.40;67.10;;;;;;5101137;28;20229;-62
2023/10/19 11:15:49;;;;;;;21.30;14.93;;;20.40;67.20;;;;;;5094525;28;20229;-62
2023/10/19 11:18:30;;;;;;;23.98;14.50;;;20.40;67.10;;;;;;5087061;28;20601;-58
2023/10/19 11:20:59;;;;;;;24.45;12.93;;;20.40;67.20;;;;;;5092529;28;20188;-61
2023/10/19 11:23:37;;;;;;;21.77;12.95;;;20.30;67.10;;;;;;5097096;28;20305;-61
2023/10/19 11:26:21;;;;;;;17.92;12.60;;;20.30;67.20;;;;;;5087482;28;20232;-62
2023/10/19 11:28:58;;;;;;;17.90;12.10;;;20.30;67.20;;;;;;5083951;28;20224;-57
2023/10/19 11:31:26;;;;;;;18.08;12.23;;;20.30;67.20;;;;;;5091084;28;20204;-61
2023/10/19 11:33:55;;;;;;;18.60;11.88;;;20.30;67.20;;;;;;5104502;28;20316;-60
2023/10/19 11:36:24;;;;;;;18.73;11.13;;;20.30;67.20;;;;;;5084560;28;20213;-57
2023/10/19 11:38:53;;;;;;;18.65;10.77;;;20.30;67.20;;;;;;5085852;28;20229;-58
2023/10/19 11:41:21;;;;;;;16.70;10.85;;;20.20;67.20;;;;;;5085121;28;20289;-63
2023/10/19 11:43:53;;;;;;;17.50;9.57;;;20.30;67.20;;;;;;5097886;28;20225;-61
2023/10/19 11:46:22;;;;;;;18.73;9.48;;;20.30;67.30;;;;;;5095221;28;20186;-59
2023/10/19 11:51:31;;;;;;;13.60;8.60;;;20.20;67.20;;;;;;5067293;28;20212;-60
2023/10/19 11:53:59;;;;;;;18.52;7.95;;;20.20;67.20;;;;;;5103679;28;20217;-60
2023/10/19 11:56:26;;;;;;;16.17;8.75;;;20.20;67.20;;;;;;5083886;28;20197;-61
2023/10/19 11:58:55;;;;;;;16.50;8.20;;;20.20;67.30;;;;;;5106154;28;20281;-62
2023/10/19 12:01:24;;;;;;;13.88;7.63;;;20.20;67.50;;;;;;5092011;28;20219;-59
2023/10/19 12:06:33;;;;;;;13.45;7.35;;;20.20;67.40;;;;;;5066850;28;20202;-60
2023/10/19 12:09:11;;;;;;;13.75;7.53;;;20.20;67.40;;;;;;5098027;28;20244;-58
2023/10/19 12:11:41;;;;;;;14.40;6.72;;;20.20;67.40;;;;;;5094858;28;20193;-60
2023/10/19 12:14:11;;;;;;;12.30;6.97;;;20.20;67.50;;;;;;5099748;28;20314;-57
2023/10/19 12:16:39;;;;;;;11.55;6.38;;;20.20;67.50;;;;;;5099156;28;20299;-56
2023/10/19 12:19:07;;;;;;;16.23;6.60;;;20.20;67.40;;;;;;5099173;28;20256;-57
2023/10/19 12:21:50;;;;;;;;;;;;;;;;;;;;;
2023/10/19 12:24:18;;;;;;;13.65;6.50;;;20.20;67.30;;;;;;5091879;28;20214;-58
2023/10/19 12:26:45;;;;;;;11.30;6.32;;;20.20;67.30;;;;;;5090359;28;20233;-59
2023/10/19 12:29:17;;;;;;;14.82;5.68;;;20.30;67.30;;;;;;5103701;28;21131;-61
2023/10/19 12:31:44;;;;;;;12.32;6.07;;;20.30;67.30;;;;;;5089657;28;20197;-57
2023/10/19 12:34:15;;;;;;;8.30;5.75;;;20.30;67.30;;;;;;5093906;28;20228;-62
2023/10/19 12:36:44;;;;;;;10.88;4.93;;;20.30;67.30;;;;;;5098785;28;20700;-62
2023/10/19 12:39:34;;;;;;;11.88;6.03;;;20.30;67.30;;;;;;5091842;28;20228;-60
2023/10/19 12:41:58;;;;;;;13.18;5.55;;;20.30;67.50;;;;;;5093927;28;20221;-60
2023/10/19 12:44:28;;;;;;;11.93;5.70;;;20.30;67.40;;;;;;5088262;28;20593;-63
2023/10/19 12:46:57;;;;;;;14.35;5.78;;;20.30;67.50;;;;;;5096988;28;20652;-59
2023/10/19 12:49:25;;;;;;;11.63;5.50;;;20.30;67.40;;;;;;5087513;28;20224;-59
2023/10/19 12:51:54;;;;;;;10.20;4.93;;;20.30;67.50;;;;;;5087078;28;20292;-64
2023/10/19 12:54:21;;;;;;;14.55;5.22;;;20.30;67.50;;;;;;5084680;28;20213;-59
2023/10/19 12:56:49;;;;;;;8.52;4.63;;;20.30;67.40;;;;;;5089433;28;20200;-64
2023/10/19 12:59:18;;;;;;;11.32;5.35;;;20.30;67.40;;;;;;5102033;28;20233;-64
2023/10/19 13:01:48;;;;;;;11.55;4.55;;;20.30;67.40;;;;;;5105269;28;20225;-62
2023/10/19 13:04:16;;;;;;;8.75;4.60;;;20.30;67.50;;;;;;5083125;28;20228;-59